createdAt,value
2018-05-23T00:00:05.148Z,101672.06
2018-05-23T00:02:33.436Z,101673.25
2018-05-23T00:05:01.919Z,101677.91
2018-05-23T00:07:30.233Z,101678.76
2018-05-23T00:10:01.436Z,101681.11
2018-05-23T00:12:29.854Z,101681.16
2018-05-23T00:14:58.448Z,101676.10
2018-05-23T00:17:27.935Z,101679.84
2018-05-23T00:19:56.266Z,101684.77
2018-05-23T00:22:24.923Z,101682.31
2018-05-23T00:24:54.017Z,101686.09
2018-05-23T00:27:22.310Z,101695.59
2018-05-23T00:29:52.605Z,101697.28
2018-05-23T00:32:20.997Z,101698.89
2018-05-23T00:34:50.956Z,101707.36
2018-05-23T00:37:20.216Z,101699.28
2018-05-23T00:39:49.382Z,101707.77
2018-05-23T00:42:18.194Z,101711.06
2018-05-23T00:44:47.010Z,101710.16
2018-05-23T00:47:16.686Z,101711.02
2018-05-23T00:49:44.974Z,101713.52
2018-05-23T00:52:14.850Z,101711.33
2018-05-23T00:55:01.539Z,101719.61
2018-05-23T00:57:32.053Z,101720.89
2018-05-23T01:00:01.330Z,101725.06
2018-05-23T01:02:29.623Z,101721.77
2018-05-23T01:04:58.799Z,101731.78
2018-05-23T01:07:28.353Z,101725.08
2018-05-23T01:09:57.110Z,101731.78
2018-05-23T01:12:25.446Z,101738.06
2018-05-23T01:14:53.739Z,101740.59
2018-05-23T01:17:22.127Z,101736.45
2018-05-23T01:19:51.329Z,101737.55
2018-05-23T01:22:19.682Z,101738.27
2018-05-23T01:24:47.994Z,101739.59
2018-05-23T01:27:16.282Z,101741.99
2018-05-23T01:29:46.260Z,101745.41
2018-05-23T01:32:15.415Z,101747.42
2018-05-23T01:34:46.487Z,101751.45
2018-05-23T01:37:15.307Z,101749.84
2018-05-23T01:39:44.077Z,101750.13
2018-05-23T01:42:13.575Z,101754.27
2018-05-23T01:44:42.390Z,101755.55
2018-05-23T01:47:10.747Z,101760.55
2018-05-23T01:49:39.079Z,101760.27
2018-05-23T01:52:07.373Z,101756.08
2018-05-23T01:54:36.486Z,101755.20
2018-05-23T01:57:05.550Z,101766.18
2018-05-23T01:59:33.930Z,101760.74
2018-05-23T02:02:02.228Z,101764.01
2018-05-23T02:04:31.338Z,101760.30
2018-05-23T02:07:00.477Z,101765.70
2018-05-23T02:09:28.781Z,101760.67
2018-05-23T02:11:57.104Z,101765.73
2018-05-23T02:14:25.433Z,101763.98
2018-05-23T02:16:53.800Z,101771.37
2018-05-23T02:19:22.597Z,101776.48
2018-05-23T02:21:52.842Z,101773.15
2018-05-23T02:24:21.917Z,101770.38
2018-05-23T02:26:50.209Z,101772.50
2018-05-23T02:29:18.567Z,101773.35
2018-05-23T02:31:46.904Z,101779.28
2018-05-23T02:34:15.490Z,101773.62
2018-05-23T02:36:44.094Z,101768.63
2018-05-23T02:39:13.080Z,101779.73
2018-05-23T02:41:41.369Z,101775.55
2018-05-23T02:44:09.731Z,101780.16
2018-05-23T02:46:38.029Z,101783.48
2018-05-23T02:49:06.362Z,101789.22
2018-05-23T02:51:35.420Z,101787.91
2018-05-23T02:54:03.734Z,101790.94
2018-05-23T02:56:32.997Z,101787.11
2018-05-23T02:59:01.909Z,101794.78
2018-05-23T03:01:30.199Z,101802.13
2018-05-23T03:04:00.451Z,101812.26
2018-05-23T03:06:28.757Z,101804.86
2018-05-23T03:08:57.697Z,101811.11
2018-05-23T03:11:27.812Z,101816.16
2018-05-23T03:13:56.898Z,101822.02
2018-05-23T03:16:25.311Z,101820.77
2018-05-23T03:18:53.993Z,101825.77
2018-05-23T03:21:22.305Z,101830.77
2018-05-23T03:23:50.702Z,101835.19
2018-05-23T03:26:20.054Z,101836.80
2018-05-23T03:28:50.353Z,101841.81
2018-05-23T03:31:18.657Z,101834.70
2018-05-23T03:33:48.315Z,101846.56
2018-05-23T03:36:18.184Z,101848.09
2018-05-23T03:38:48.053Z,101848.35
2018-05-23T03:41:18.683Z,101845.98
2018-05-23T03:43:47.470Z,101856.20
2018-05-23T03:46:16.690Z,101853.20
2018-05-23T03:48:45.471Z,101861.86
2018-05-23T03:51:16.432Z,101864.58
2018-05-23T03:53:46.374Z,101870.14
2018-05-23T03:56:14.663Z,101872.02
2018-05-23T03:58:43.751Z,101874.08
2018-05-23T04:01:30.076Z,101876.27
2018-05-23T04:10:11.306Z,101894.36
2018-05-23T04:12:40.619Z,101900.39
2018-05-23T04:15:09.931Z,101893.52
2018-05-23T04:17:38.563Z,101891.28
2018-05-23T04:20:07.352Z,101893.27
2018-05-23T04:22:35.747Z,101887.66
2018-05-23T04:25:04.190Z,101893.25
2018-05-23T04:27:32.490Z,101890.52
2018-05-23T04:30:01.173Z,101891.73
2018-05-23T04:32:30.703Z,101892.83
2018-05-23T04:34:59.136Z,101900.80
2018-05-23T04:37:28.224Z,101899.14
2018-05-23T04:39:58.814Z,101903.23
2018-05-23T04:42:27.133Z,101898.41
2018-05-23T04:44:57.574Z,101896.39
2018-05-23T04:47:26.077Z,101899.89
2018-05-23T04:49:56.054Z,101907.34
2018-05-23T04:52:25.544Z,101913.96
2018-05-23T04:54:53.859Z,101909.42
2018-05-23T04:57:22.168Z,101913.01
2018-05-23T04:59:51.015Z,101914.69
2018-05-23T05:02:20.244Z,101913.10
2018-05-23T05:04:49.468Z,101918.33
2018-05-23T05:07:18.287Z,101923.33
2018-05-23T05:09:47.279Z,101927.65
2018-05-23T05:12:15.566Z,101925.30
2018-05-23T05:14:44.560Z,101937.88
2018-05-23T05:17:12.859Z,101934.43
2018-05-23T05:19:41.873Z,101940.10
2018-05-23T05:22:11.037Z,101949.72
2018-05-23T05:24:40.368Z,101949.69
2018-05-23T05:27:09.431Z,101954.78
2018-05-23T05:29:38.266Z,101955.75
2018-05-23T05:32:08.849Z,101962.89
2018-05-23T05:34:37.163Z,101955.09
2018-05-23T05:37:06.275Z,101957.61
2018-05-23T05:39:35.343Z,101958.00
2018-05-23T05:42:04.362Z,101969.84
2018-05-23T05:44:34.257Z,101969.42
2018-05-23T05:47:03.835Z,101973.64
2018-05-23T05:49:33.566Z,101975.04
2018-05-23T05:52:02.429Z,101981.73
2018-05-23T05:54:32.478Z,101985.58
2018-05-23T05:57:01.694Z,101991.88
2018-05-23T05:59:31.933Z,101991.62
2018-05-23T06:02:01.097Z,101995.42
2018-05-23T06:04:30.336Z,101995.84
2018-05-23T06:06:59.401Z,101991.72
2018-05-23T06:09:28.317Z,101990.47
2018-05-23T06:11:57.865Z,101999.81
2018-05-23T06:14:26.149Z,101993.53
2018-05-23T06:16:54.539Z,101998.17
2018-05-23T06:19:22.876Z,101993.98
2018-05-23T06:21:51.249Z,102008.27
2018-05-23T06:24:19.802Z,102005.33
2018-05-23T06:26:49.611Z,102008.30
2018-05-23T06:29:19.032Z,102005.84
2018-05-23T06:31:48.011Z,102009.23
2018-05-23T06:34:17.106Z,102013.00
2018-05-23T06:36:46.009Z,102009.64
2018-05-23T06:39:15.073Z,102018.47
2018-05-23T06:41:43.379Z,102019.33
2018-05-23T06:44:12.419Z,102016.37
2018-05-23T06:46:40.948Z,102030.67
2018-05-23T06:49:10.087Z,102029.41
2018-05-23T06:51:39.914Z,102025.63
2018-05-23T06:54:08.422Z,102027.30
2018-05-23T06:56:36.820Z,102030.25
2018-05-23T06:59:05.897Z,102036.12
2018-05-23T07:01:34.790Z,102036.55
2018-05-23T07:04:04.050Z,102036.50
2018-05-23T07:06:32.711Z,102038.59
2018-05-23T07:09:02.372Z,102041.52
2018-05-23T07:11:30.768Z,102039.40
2018-05-23T07:13:59.469Z,102049.50
2018-05-23T07:16:27.850Z,102060.41
2018-05-23T07:18:56.429Z,102057.00
2018-05-23T07:21:25.103Z,102053.59
2018-05-23T07:23:53.778Z,102052.73
2018-05-23T07:26:22.080Z,102057.31
2018-05-23T07:28:50.862Z,102059.84
2018-05-23T07:31:19.515Z,102058.11
2018-05-23T07:33:48.444Z,102057.66
2018-05-23T07:36:17.149Z,102064.85
2018-05-23T07:38:45.457Z,102058.03
2018-05-23T07:41:14.925Z,102071.45
2018-05-23T07:43:43.240Z,102062.98
2018-05-23T07:46:13.783Z,102060.88
2018-05-23T07:48:42.112Z,102073.44
2018-05-23T07:51:11.302Z,102065.79
2018-05-23T07:53:40.123Z,102069.25
2018-05-23T07:56:08.772Z,102077.70
2018-05-23T07:58:38.575Z,102071.34
2018-05-23T08:01:07.760Z,102077.95
2018-05-23T08:03:36.241Z,102070.66
2018-05-23T08:06:04.563Z,102077.67
2018-05-23T08:08:33.344Z,102078.53
2018-05-23T08:11:01.642Z,102074.76
2018-05-23T08:13:30.721Z,102074.14
2018-05-23T08:15:59.108Z,102076.67
2018-05-23T08:18:27.477Z,102077.55
2018-05-23T08:20:56.156Z,102079.50
2018-05-23T08:23:25.066Z,102081.95
2018-05-23T08:25:53.370Z,102085.09
2018-05-23T08:28:22.465Z,102086.50
2018-05-23T08:30:50.830Z,102089.77
2018-05-23T08:33:20.385Z,102092.27
2018-05-23T08:35:48.835Z,102086.47
2018-05-23T08:38:17.908Z,102093.12
2018-05-23T08:40:46.582Z,102083.73
2018-05-23T08:43:14.910Z,102092.17
2018-05-23T08:45:44.041Z,102095.48
2018-05-23T08:48:12.321Z,102090.23
2018-05-23T08:50:41.910Z,102091.72
2018-05-23T08:53:10.226Z,102094.53
2018-05-23T08:55:38.530Z,102096.01
2018-05-23T08:58:06.823Z,102086.78
2018-05-23T09:00:35.980Z,102088.05
2018-05-23T09:03:04.272Z,102099.94
2018-05-23T09:05:34.278Z,102096.85
2018-05-23T09:08:03.010Z,102098.24
2018-05-23T09:10:32.093Z,102093.84
2018-05-23T09:13:00.837Z,102101.06
2018-05-23T09:15:29.119Z,102091.76
2018-05-23T09:17:57.429Z,102103.97
2018-05-23T09:20:25.956Z,102104.53
2018-05-23T09:22:54.238Z,102105.56
2018-05-23T09:25:22.543Z,102097.47
2018-05-23T09:27:51.353Z,102097.39
2018-05-23T09:30:20.403Z,102112.33
2018-05-23T09:32:49.960Z,102108.05
2018-05-23T09:35:18.798Z,102107.77
2018-05-23T09:37:47.424Z,102101.12
2018-05-23T09:40:15.834Z,102101.84
2018-05-23T09:42:45.182Z,102115.13
2018-05-23T09:45:13.497Z,102107.36
2018-05-23T09:47:42.410Z,102111.70
2018-05-23T09:50:11.469Z,102106.19
2018-05-23T09:52:40.471Z,102107.97
2018-05-23T09:55:08.891Z,102108.93
2018-05-23T09:57:37.940Z,102105.54
2018-05-23T10:00:06.251Z,102098.05
2018-05-23T10:02:35.312Z,102103.37
2018-05-23T10:05:03.643Z,102104.14
2018-05-23T10:07:33.303Z,102112.17
2018-05-23T10:10:01.581Z,102118.27
2018-05-23T10:12:30.033Z,102121.70
2018-05-23T10:14:58.862Z,102124.74
2018-05-23T10:17:27.174Z,102110.87
2018-05-23T10:19:56.321Z,102118.80
2018-05-23T10:22:25.120Z,102124.59
2018-05-23T10:24:54.319Z,102124.74
2018-05-23T10:27:23.177Z,102116.60
2018-05-23T10:29:51.666Z,102121.34
2018-05-23T10:32:19.962Z,102123.48
2018-05-23T10:34:48.902Z,102123.77
2018-05-23T10:37:18.548Z,102123.22
2018-05-23T10:39:47.185Z,102135.05
2018-05-23T10:42:15.882Z,102129.17
2018-05-23T10:44:44.971Z,102131.42
2018-05-23T10:47:13.423Z,102142.13
2018-05-23T10:49:41.829Z,102129.02
2018-05-23T10:52:10.997Z,102131.09
2018-05-23T10:54:39.536Z,102135.88
2018-05-23T10:57:08.655Z,102131.94
2018-05-23T10:59:36.945Z,102151.70
2018-05-23T11:02:07.114Z,102144.83
2018-05-23T11:04:37.099Z,102144.32
2018-05-23T11:07:06.392Z,102142.17
2018-05-23T11:09:35.568Z,102145.45
2018-05-23T11:12:04.000Z,102140.80
2018-05-23T11:14:33.795Z,102134.81
2018-05-23T11:17:03.394Z,102140.84
2018-05-23T11:19:32.325Z,102139.60
2018-05-23T11:22:01.523Z,102138.47
2018-05-23T11:24:31.131Z,102139.98
2018-05-23T11:26:59.555Z,102135.08
2018-05-23T11:29:27.854Z,102140.08
2018-05-23T11:31:56.158Z,102135.66
2018-05-23T11:34:25.120Z,102130.63
2018-05-23T11:36:55.111Z,102125.70
2018-05-23T11:39:23.430Z,102118.62
2018-05-23T11:41:51.773Z,102141.34
2018-05-23T11:44:20.571Z,102142.02
2018-05-23T11:46:49.172Z,102138.96
2018-05-23T11:49:17.568Z,102134.60
2018-05-23T11:51:46.654Z,102133.33
2018-05-23T11:54:16.140Z,102126.09
2018-05-23T11:56:45.372Z,102128.73
2018-05-23T11:59:13.785Z,102129.69
2018-05-23T12:01:43.619Z,102117.77
2018-05-23T12:04:11.949Z,102124.16
2018-05-23T12:06:41.043Z,102120.52
2018-05-23T12:09:09.789Z,102120.63
2018-05-23T12:11:38.506Z,102121.80
2018-05-23T12:14:07.245Z,102122.34
2018-05-23T12:16:36.843Z,102136.13
2018-05-23T12:19:05.919Z,102134.22
2018-05-23T12:21:35.420Z,102119.64
2018-05-23T12:24:05.110Z,102101.90
2018-05-23T12:26:33.898Z,102134.36
2018-05-23T12:29:02.244Z,102123.12
2018-05-23T12:31:31.370Z,102120.60
2018-05-23T12:33:59.671Z,102117.13
2018-05-23T12:36:29.669Z,102120.98
2018-05-23T12:38:57.984Z,102122.66
2018-05-23T12:41:26.602Z,102123.73
2018-05-23T12:43:55.769Z,102124.91
2018-05-23T12:46:24.119Z,102129.09
2018-05-23T12:48:52.957Z,102120.45
2018-05-23T12:51:21.700Z,102126.94
2018-05-23T12:53:51.532Z,102126.85
2018-05-23T12:56:19.909Z,102124.84
2018-05-23T12:58:48.901Z,102125.02
2018-05-23T13:01:17.244Z,102128.75
2018-05-23T13:03:45.543Z,102124.56
2018-05-23T13:06:14.337Z,102122.69
2018-05-23T13:08:42.825Z,102118.16
2018-05-23T13:11:11.186Z,102125.44
2018-05-23T13:13:39.506Z,102127.64
2018-05-23T13:16:08.751Z,102123.91
2018-05-23T13:18:37.052Z,102123.03
2018-05-23T13:21:05.367Z,102123.84
2018-05-23T13:23:34.453Z,102120.11
2018-05-23T13:26:03.551Z,102121.61
2018-05-23T13:28:32.493Z,102124.95
2018-05-23T13:31:00.899Z,102119.34
2018-05-23T13:33:29.264Z,102121.11
2018-05-23T13:35:57.550Z,102119.06
2018-05-23T13:38:26.509Z,102116.32
2018-05-23T13:40:57.197Z,102111.03
2018-05-23T13:43:25.505Z,102115.95
2018-05-23T13:45:54.663Z,102121.47
2018-05-23T13:48:22.950Z,102114.96
2018-05-23T13:50:51.706Z,102116.84
2018-05-23T13:53:20.041Z,102118.73
2018-05-23T13:55:48.933Z,102125.30
2018-05-23T13:58:18.023Z,102112.54
2018-05-23T14:00:46.341Z,102113.74
2018-05-23T14:03:14.653Z,102112.20
2018-05-23T14:05:44.308Z,102114.99
2018-05-23T14:08:13.441Z,102104.68
2018-05-23T14:10:41.762Z,102111.42
2018-05-23T14:13:10.055Z,102112.23
2018-05-23T14:15:39.101Z,102115.66
2018-05-23T14:18:07.493Z,102110.00
2018-05-23T14:20:35.826Z,102110.20
2018-05-23T14:23:05.846Z,102116.62
2018-05-23T14:25:34.932Z,102109.83
2018-05-23T14:28:04.455Z,102111.76
2018-05-23T14:30:32.954Z,102116.31
2018-05-23T14:33:01.263Z,102120.19
2018-05-23T14:35:29.965Z,102122.06
2018-05-23T14:37:58.685Z,102124.70
2018-05-23T14:40:28.382Z,102116.56
2018-05-23T14:42:57.542Z,102121.86
2018-05-23T14:45:25.938Z,102117.73
2018-05-23T14:47:55.094Z,102117.84
2018-05-23T14:50:23.476Z,102118.78
2018-05-23T14:52:51.937Z,102116.45
2018-05-23T14:55:22.325Z,102108.78
2018-05-23T14:57:50.718Z,102112.78
2018-05-23T15:00:19.058Z,102109.22
2018-05-23T15:02:47.344Z,102115.09
2018-05-23T15:05:15.661Z,102120.38
2018-05-23T15:07:44.757Z,102110.70
2018-05-23T15:10:13.825Z,102117.51
2018-05-23T15:12:42.429Z,102118.64
2018-05-23T15:15:10.804Z,102127.48
2018-05-23T15:17:39.369Z,102120.80
2018-05-23T15:20:07.715Z,102127.60
2018-05-23T15:22:36.526Z,102118.01
2018-05-23T15:25:04.934Z,102119.47
2018-05-23T15:27:33.235Z,102117.94
2018-05-23T15:30:03.142Z,102110.90
2018-05-23T15:32:33.013Z,102112.40
2018-05-23T15:35:01.500Z,102115.56
2018-05-23T15:37:29.721Z,102109.38
2018-05-23T15:39:58.887Z,102108.70
2018-05-23T15:42:27.308Z,102115.23
2018-05-23T15:44:56.362Z,102117.52
2018-05-23T15:47:24.684Z,102121.37
2018-05-23T15:49:53.747Z,102120.02
2018-05-23T15:52:22.265Z,102123.79
2018-05-23T15:54:51.430Z,102122.98
2018-05-23T15:57:20.074Z,102123.48
2018-05-23T15:59:48.374Z,102119.60
2018-05-23T16:02:16.675Z,102110.77
2018-05-23T16:04:44.970Z,102129.39
2018-05-23T16:07:14.056Z,102136.00
2018-05-23T16:09:42.401Z,102130.63
2018-05-23T16:12:10.689Z,102131.72
2018-05-23T16:14:39.245Z,102133.23
2018-05-23T16:17:07.558Z,102120.97
2018-05-23T16:19:36.656Z,102131.55
2018-05-23T16:22:05.063Z,102129.11
2018-05-23T16:24:33.419Z,102132.23
2018-05-23T16:27:01.723Z,102138.52
2018-05-23T16:29:31.043Z,102136.25
2018-05-23T16:32:00.615Z,102137.53
2018-05-23T16:34:29.597Z,102139.19
2018-05-23T16:36:58.202Z,102127.84
2018-05-23T16:39:27.929Z,102134.00
2018-05-23T16:41:57.010Z,102131.51
2018-05-23T16:44:25.781Z,102135.54
2018-05-23T16:46:54.697Z,102139.16
2018-05-23T16:49:23.430Z,102136.14
2018-05-23T16:51:51.942Z,102135.50
2018-05-23T16:54:20.241Z,102129.25
2018-05-23T16:56:48.534Z,102133.73
2018-05-23T16:59:17.614Z,102135.22
2018-05-23T17:01:45.946Z,102129.86
2018-05-23T17:04:14.260Z,102132.83
2018-05-23T17:06:43.905Z,102134.22
2018-05-23T17:09:13.779Z,102139.00
2018-05-23T17:11:42.639Z,102141.25
2018-05-23T17:14:11.063Z,102141.21
2018-05-23T17:16:39.441Z,102148.80
2018-05-23T17:19:07.879Z,102153.91
2018-05-23T17:21:36.721Z,102147.06
2018-05-23T17:24:05.050Z,102142.89
2018-05-23T17:26:33.355Z,102152.12
2018-05-23T17:29:01.660Z,102151.45
2018-05-23T17:31:33.018Z,102158.97
2018-05-23T17:34:02.095Z,102154.58
2018-05-23T17:36:30.432Z,102158.86
2018-05-23T17:38:58.812Z,102161.75
2018-05-23T17:41:27.172Z,102159.45
2018-05-23T17:43:56.351Z,102160.25
2018-05-23T17:46:26.439Z,102171.61
2018-05-23T17:48:55.227Z,102173.59
2018-05-23T17:51:25.128Z,102171.05
2018-05-23T17:53:53.428Z,102168.59
2018-05-23T17:56:22.363Z,102175.78
2018-05-23T17:58:50.870Z,102170.34
2018-05-23T18:01:20.152Z,102174.46
2018-05-23T18:03:49.224Z,102179.91
2018-05-23T18:06:17.727Z,102176.02
2018-05-23T18:08:46.104Z,102179.78
2018-05-23T18:11:15.282Z,102182.09
2018-05-23T18:13:43.613Z,102169.03
2018-05-23T18:16:11.898Z,102176.17
2018-05-23T18:18:40.578Z,102175.11
2018-05-23T18:21:10.793Z,102177.36
2018-05-23T18:23:39.253Z,102177.73
2018-05-23T18:26:07.946Z,102185.05
2018-05-23T18:28:36.654Z,102190.73
2018-05-23T18:31:05.701Z,102188.09
2018-05-23T18:33:33.994Z,102182.52
2018-05-23T18:36:03.996Z,102187.52
2018-05-23T18:38:32.327Z,102190.32
2018-05-23T18:41:00.634Z,102194.66
2018-05-23T18:43:30.479Z,102195.19
2018-05-23T18:45:59.531Z,102195.46
2018-05-23T18:48:27.831Z,102190.81
2018-05-23T18:50:57.134Z,102192.14
2018-05-23T18:53:26.194Z,102195.28
2018-05-23T18:55:54.509Z,102197.84
2018-05-23T18:58:22.896Z,102192.84
2018-05-23T19:00:51.162Z,102201.41
2018-05-23T19:03:19.470Z,102203.92
2018-05-23T19:05:48.547Z,102202.77
2018-05-23T19:08:16.945Z,102206.53
2018-05-23T19:10:46.770Z,102208.00
2018-05-23T19:13:15.866Z,102214.73
2018-05-23T19:15:44.930Z,102211.38
2018-05-23T19:18:15.520Z,102213.58
2018-05-23T19:20:44.634Z,102216.66
2018-05-23T19:23:12.968Z,102217.94
2018-05-23T19:25:42.838Z,102223.06
2018-05-23T19:28:11.240Z,102217.52
2018-05-23T19:30:40.346Z,102229.77
2018-05-23T19:33:09.438Z,102222.19
2018-05-23T19:35:37.763Z,102228.05
2018-05-23T19:38:06.327Z,102235.75
2018-05-23T19:40:36.303Z,102238.31
2018-05-23T19:43:04.674Z,102235.82
2018-05-23T19:45:32.952Z,102237.48
2018-05-23T19:48:01.251Z,102240.88
2018-05-23T19:50:30.379Z,102245.52
2018-05-23T19:52:59.711Z,102244.69
2018-05-23T19:55:28.665Z,102243.01
2018-05-23T19:57:57.772Z,102247.19
2018-05-23T20:00:26.180Z,102243.00
2018-05-23T20:02:54.730Z,102250.17
2018-05-23T20:05:25.264Z,102247.23
2018-05-23T20:07:53.654Z,102248.08
2018-05-23T20:10:22.698Z,102245.57
2018-05-23T20:12:51.017Z,102246.82
2018-05-23T20:15:19.458Z,102246.05
2018-05-23T20:17:49.428Z,102246.44
2018-05-23T20:20:17.731Z,102247.67
2018-05-23T20:22:46.555Z,102244.33
2018-05-23T20:25:16.109Z,102246.02
2018-05-23T20:27:44.436Z,102246.88
2018-05-23T20:30:14.633Z,102249.41
2018-05-23T20:32:43.710Z,102251.10
2018-05-23T20:35:11.993Z,102252.27
2018-05-23T20:37:40.290Z,102257.72
2018-05-23T20:40:08.591Z,102256.89
2018-05-23T20:42:38.457Z,102262.78
2018-05-23T20:45:07.927Z,102266.16
2018-05-23T20:47:37.664Z,102275.38
2018-05-23T20:50:06.868Z,102268.61
2018-05-23T20:52:35.430Z,102272.81
2018-05-23T20:55:04.896Z,102268.56
2018-05-23T20:57:33.177Z,102274.42
2018-05-23T21:00:01.720Z,102274.37
2018-05-23T21:02:30.303Z,102272.25
2018-05-23T21:04:58.710Z,102282.31
2018-05-23T21:07:26.998Z,102283.17
2018-05-23T21:09:55.319Z,102281.90
2018-05-23T21:12:24.596Z,102278.94
2018-05-23T21:14:52.989Z,102279.30
2018-05-23T21:20:57.456Z,102284.61
2018-05-23T21:23:27.441Z,102287.08
2018-05-23T21:25:55.727Z,102291.30
2018-05-23T21:28:24.259Z,102287.09
2018-05-23T21:30:52.569Z,102292.53
2018-05-23T21:33:20.934Z,102289.09
2018-05-23T21:35:49.218Z,102290.00
2018-05-23T21:38:17.610Z,102291.64
2018-05-23T21:40:46.459Z,102288.61
2018-05-23T21:43:14.758Z,102288.08
2018-05-23T21:45:43.114Z,102291.53
2018-05-23T21:48:11.424Z,102287.30
2018-05-23T21:50:40.259Z,102286.94
2018-05-23T22:02:11.183Z,102284.05
2018-05-23T22:04:41.153Z,102277.09
2018-05-23T22:07:09.457Z,102281.20
2018-05-23T22:09:38.619Z,102287.37
2018-05-23T22:12:07.695Z,102286.95
2018-05-23T22:14:36.628Z,102296.36
2018-05-23T22:17:04.986Z,102300.44
2018-05-23T22:19:33.318Z,102297.53
2018-05-23T22:22:01.755Z,102302.66
2018-05-23T22:24:30.599Z,102291.79
2018-05-23T22:26:58.882Z,102295.94
2018-05-23T22:29:27.317Z,102297.39
2018-05-23T22:31:55.635Z,102293.58
2018-05-23T22:34:25.417Z,102299.12
2018-05-23T22:36:55.341Z,102297.34
2018-05-23T22:39:24.510Z,102298.67
2018-05-23T22:41:53.646Z,102301.02
2018-05-23T22:44:22.789Z,102302.18
2018-05-23T22:46:51.074Z,102303.03
2018-05-23T22:49:19.358Z,102301.72
2018-05-23T22:51:47.673Z,102300.77
2018-05-23T22:54:17.111Z,102296.95
2018-05-23T22:56:45.755Z,102294.84
2018-05-23T22:59:14.909Z,102297.70
2018-05-23T23:01:43.934Z,102291.09
2018-05-23T23:04:13.859Z,102291.03
2018-05-23T23:06:42.143Z,102298.41
2018-05-23T23:09:11.222Z,102294.14
2018-05-23T23:11:39.573Z,102290.91
2018-05-23T23:14:09.407Z,102295.64
2018-05-23T23:16:37.815Z,102297.41
2018-05-23T23:19:06.873Z,102296.31
2018-05-23T23:21:36.074Z,102293.66
2018-05-23T23:24:04.553Z,102296.27
2018-05-23T23:26:32.847Z,102295.67
2018-05-23T23:29:01.238Z,102296.33
2018-05-23T23:31:29.592Z,102296.14
2018-05-23T23:33:58.125Z,102299.45
2018-05-23T23:36:28.683Z,102294.20
2018-05-23T23:38:58.594Z,102297.23
2018-05-23T23:41:27.688Z,102296.34
2018-05-23T23:43:56.207Z,102291.88
2018-05-23T23:46:25.285Z,102298.09
2018-05-23T23:48:53.603Z,102289.22
2018-05-23T23:51:22.835Z,102292.91
2018-05-23T23:53:52.696Z,102287.83
2018-05-23T23:56:20.982Z,102298.63
2018-05-23T23:58:50.185Z,102290.45
